createdAt,value
2019-06-27T00:04:34.032Z,23.30
2019-06-27T00:07:46.273Z,23.40
2019-06-27T00:10:34.129Z,23.20
2019-06-27T00:13:35.391Z,23.10
2019-06-27T00:16:58.620Z,22.90
2019-06-27T00:20:05.972Z,22.80
2019-06-27T00:22:57.504Z,22.80
2019-06-27T00:26:15.892Z,22.70
2019-06-27T00:29:05.858Z,22.70
2019-06-27T00:32:05.732Z,22.60
2019-06-27T00:35:17.765Z,22.60
2019-06-27T00:38:05.684Z,22.60
2019-06-27T00:41:15.417Z,22.60
2019-06-27T00:43:56.685Z,22.60
2019-06-27T00:46:47.566Z,22.50
2019-06-27T00:50:01.515Z,22.60
2019-06-27T00:53:39.147Z,22.80
2019-06-27T00:56:47.821Z,22.60
2019-06-27T00:59:45.563Z,22.50
2019-06-27T01:02:45.342Z,22.40
2019-06-27T01:05:45.612Z,22.50
2019-06-27T01:08:40.773Z,22.40
2019-06-27T01:11:29.432Z,22.20
2019-06-27T01:14:17.232Z,22.10
2019-06-27T01:17:02.303Z,22.10
2019-06-27T01:19:47.945Z,22.10
2019-06-27T01:23:04.545Z,22.20
2019-06-27T01:26:07.819Z,22.10
2019-06-27T01:29:14.490Z,21.90
2019-06-27T01:32:08.460Z,21.80
2019-06-27T01:34:50.554Z,21.90
2019-06-27T01:37:40.583Z,21.90
2019-06-27T01:40:43.097Z,21.70
2019-06-27T01:43:20.847Z,21.90
2019-06-27T01:46:09.240Z,22.00
2019-06-27T01:49:08.025Z,22.10
2019-06-27T01:52:11.112Z,22.20
2019-06-27T01:54:51.939Z,22.20
2019-06-27T01:57:52.837Z,22.00
2019-06-27T02:00:43.033Z,21.90
2019-06-27T02:03:47.143Z,22.00
2019-06-27T02:06:38.120Z,21.80
2019-06-27T02:09:45.070Z,21.70
2019-06-27T02:12:30.022Z,21.40
2019-06-27T02:15:16.749Z,21.40
2019-06-27T02:18:04.526Z,21.40
2019-06-27T02:20:55.409Z,21.20
2019-06-27T02:23:45.285Z,21.30
2019-06-27T02:26:47.048Z,21.40
2019-06-27T02:29:56.202Z,21.40
2019-06-27T02:32:40.693Z,21.50
2019-06-27T02:35:41.994Z,21.20
2019-06-27T02:41:33.878Z,21.10
2019-06-27T02:44:29.432Z,21.10
2019-06-27T02:47:18.883Z,21.10
2019-06-27T02:50:28.592Z,20.90
2019-06-27T02:52:55.064Z,20.90
2019-06-27T02:55:38.675Z,20.80
2019-06-27T02:58:31.357Z,20.80
2019-06-27T03:01:19.343Z,20.70
2019-06-27T03:04:04.981Z,20.70
2019-06-27T03:06:40.916Z,20.90
2019-06-27T03:09:31.195Z,20.90
2019-06-27T03:12:31.098Z,20.90
2019-06-27T03:15:18.388Z,20.70
2019-06-27T03:18:08.431Z,20.50
2019-06-27T03:20:54.308Z,20.60
2019-06-27T03:24:08.946Z,20.80
2019-06-27T03:27:09.689Z,20.80
2019-06-27T03:29:57.866Z,20.80
2019-06-27T03:32:35.589Z,20.70
2019-06-27T03:38:45.384Z,20.60
2019-06-27T03:41:28.479Z,20.80
2019-06-27T03:50:42.534Z,20.90
2019-06-27T03:53:40.642Z,21.00
2019-06-27T03:56:38.455Z,21.10
2019-06-27T04:00:05.382Z,21.10
2019-06-27T04:06:56.390Z,21.30
2019-06-27T04:13:22.102Z,21.10
2019-06-27T04:16:27.036Z,21.40
2019-06-27T04:24:02.751Z,21.60
2019-06-27T04:27:31.994Z,21.30
2019-06-27T04:31:00.510Z,21.00
2019-06-27T04:34:07.860Z,20.80
2019-06-27T04:37:08.936Z,20.70
2019-06-27T04:44:22.466Z,20.80
2019-06-27T04:47:47.688Z,20.50
2019-06-27T04:58:50.093Z,21.40
2019-06-27T05:02:08.564Z,21.90
2019-06-27T05:06:06.420Z,21.70
2019-06-27T05:09:46.756Z,21.90
2019-06-27T05:13:27.144Z,22.50
2019-06-27T05:21:15.790Z,23.50
2019-06-27T05:28:37.984Z,22.70
2019-06-27T05:44:38.388Z,23.10
2019-06-27T05:48:06.684Z,23.00
2019-06-27T05:51:31.780Z,23.30
2019-06-27T05:55:25.296Z,23.20
2019-06-27T06:10:41.172Z,25.50
2019-06-27T06:18:20.403Z,24.40
2019-06-27T06:21:36.673Z,23.20
2019-06-27T06:28:22.535Z,21.70
2019-06-27T06:35:19.952Z,22.00
2019-06-27T06:45:56.751Z,22.80
2019-06-27T06:53:43.578Z,23.20
2019-06-27T07:13:03.867Z,23.60
2019-06-27T07:17:02.565Z,24.10
2019-06-27T07:42:56.001Z,24.80
2019-06-27T07:46:33.599Z,25.10
2019-06-27T07:50:05.599Z,25.30
2019-06-27T07:53:51.812Z,25.60
2019-06-27T07:57:54.494Z,25.60
2019-06-27T08:36:17.003Z,31.40
2019-06-27T08:43:17.262Z,31.60
2019-06-27T08:46:59.957Z,31.50
2019-06-27T08:50:25.438Z,31.60
2019-06-27T08:57:40.658Z,31.90
2019-06-27T09:01:39.123Z,32.10
2019-06-27T09:05:08.784Z,32.20
2019-06-27T09:16:50.019Z,32.10
2019-06-27T09:34:21.271Z,33.20
2019-06-27T09:41:32.712Z,33.50
2019-06-27T09:48:39.189Z,33.90
2019-06-27T10:15:56.130Z,33.20
2019-06-27T10:19:41.207Z,33.40
2019-06-27T10:26:45.390Z,33.10
2019-06-27T10:43:39.773Z,31.80
2019-06-27T10:47:08.468Z,31.00
2019-06-27T11:16:34.044Z,31.00
2019-06-27T11:27:46.693Z,30.50
2019-06-27T11:31:26.514Z,30.60
2019-06-27T11:47:14.238Z,30.60
2019-06-27T11:50:37.598Z,30.50
2019-06-27T11:54:02.903Z,30.40
2019-06-27T11:57:23.916Z,30.10
2019-06-27T12:05:06.985Z,29.50
2019-06-27T12:08:23.872Z,29.60
2019-06-27T12:16:03.957Z,30.00
2019-06-27T12:19:53.831Z,30.10
2019-06-27T12:31:20.093Z,29.70
2019-06-27T12:34:48.429Z,29.80
2019-06-27T12:57:48.827Z,29.40
2019-06-27T13:05:33.878Z,28.90
2019-06-27T13:13:31.749Z,28.80
2019-06-27T13:24:53.910Z,28.40
2019-06-27T13:38:14.587Z,27.90
2019-06-27T14:31:38.513Z,27.20
2019-06-27T14:45:38.398Z,26.90
2019-06-27T14:51:15.169Z,27.00
2019-06-27T14:53:42.632Z,27.00
2019-06-27T15:03:33.817Z,27.00
2019-06-27T15:06:00.448Z,27.00
2019-06-27T15:22:58.072Z,26.90
2019-06-27T15:30:43.275Z,26.90
2019-06-27T15:42:05.171Z,27.00
2019-06-27T15:57:44.253Z,26.60
2019-06-27T16:01:27.118Z,26.60
2019-06-27T16:08:39.622Z,26.80
2019-06-27T16:12:30.564Z,26.60
2019-06-27T16:20:12.360Z,26.60
2019-06-27T16:31:08.864Z,26.60
2019-06-27T16:34:46.470Z,26.60
2019-06-27T16:53:48.094Z,26.60
2019-06-27T17:13:32.502Z,26.40
2019-06-27T17:17:09.041Z,26.30
2019-06-27T17:23:38.169Z,26.20
2019-06-27T17:28:26.724Z,26.00
2019-06-27T17:31:45.749Z,26.10
2019-06-27T17:35:47.980Z,26.00
2019-06-27T17:45:55.258Z,25.60
2019-06-27T17:49:41.379Z,25.60
2019-06-27T17:53:38.037Z,25.50
2019-06-27T19:32:10.841Z,22.80
2019-06-27T19:35:23.924Z,22.60
2019-06-27T19:38:45.390Z,22.40
2019-06-27T19:42:03.961Z,22.30
2019-06-27T19:45:29.419Z,22.50
2019-06-27T19:48:45.528Z,22.20
2019-06-27T19:52:19.621Z,22.30
2019-06-27T19:55:21.863Z,22.20
2019-06-27T19:58:36.876Z,22.00
2019-06-27T20:03:27.142Z,22.00
2019-06-27T20:04:57.414Z,22.00
2019-06-27T20:12:08.463Z,21.80
2019-06-27T20:15:27.440Z,23.30
2019-06-27T20:22:47.922Z,23.80
2019-06-27T20:26:16.035Z,23.60
2019-06-27T20:33:16.599Z,24.00
2019-06-27T20:37:29.800Z,24.00
2019-06-27T20:40:31.159Z,24.10
2019-06-27T20:44:03.581Z,24.00
2019-06-27T20:47:32.239Z,24.10
2019-06-27T20:51:10.429Z,24.10
2019-06-27T20:54:49.650Z,24.10
2019-06-27T20:58:04.199Z,24.10
2019-06-27T21:05:23.371Z,23.70
2019-06-27T21:08:51.492Z,23.70
2019-06-27T21:16:01.497Z,23.40
2019-06-27T21:19:09.685Z,23.10
2019-06-27T21:25:57.987Z,22.70
2019-06-27T21:29:30.637Z,23.00
2019-06-27T21:33:25.632Z,23.10
2019-06-27T21:36:42.410Z,22.90
2019-06-27T21:40:38.660Z,22.90
2019-06-27T21:43:33.676Z,23.00
2019-06-27T21:46:41.819Z,22.60
2019-06-27T21:49:48.840Z,22.50
2019-06-27T21:53:08.882Z,22.40
2019-06-27T21:56:52.917Z,22.30
2019-06-27T22:00:25.416Z,22.30
2019-06-27T22:03:26.441Z,22.20
2019-06-27T22:06:46.411Z,22.30
2019-06-27T22:09:48.703Z,22.00
2019-06-27T22:12:49.582Z,22.00
2019-06-27T22:15:57.751Z,22.10
2019-06-27T22:19:21.501Z,22.10
2019-06-27T22:22:20.962Z,22.00
2019-06-27T22:25:43.666Z,21.80
2019-06-27T22:28:57.124Z,21.90
2019-06-27T22:32:15.633Z,21.80
2019-06-27T22:35:25.522Z,22.00
2019-06-27T22:42:59.789Z,21.80
2019-06-27T22:49:42.658Z,21.70
2019-06-27T22:52:53.590Z,21.60
2019-06-27T22:56:06.300Z,21.60
2019-06-27T22:59:16.440Z,21.70
2019-06-27T23:02:25.264Z,21.60
2019-06-27T23:05:21.799Z,21.70
2019-06-27T23:15:20.738Z,21.10
2019-06-27T23:18:27.129Z,21.00
2019-06-27T23:21:20.737Z,21.30
2019-06-27T23:24:34.756Z,21.20
2019-06-27T23:27:46.048Z,21.10
2019-06-27T23:31:01.479Z,21.10
2019-06-27T23:34:09.915Z,21.10
2019-06-27T23:37:18.542Z,20.90
2019-06-27T23:40:31.003Z,20.80
2019-06-27T23:43:52.335Z,20.80
2019-06-27T23:47:04.914Z,20.70
2019-06-27T23:50:10.169Z,20.60
2019-06-27T23:53:32.992Z,20.30
